Time;durP1;ratioP1;P1;durP2;ratioP2;P2;SDS_P1;SDS_P2;PMS_P1;PMS_P2;Temp;Humidity;BMP_temperature;BMP_pressure;BME280_temperature;BME280_humidity;BME280_pressure;Samples;Min_cycle;Max_cycle;Signal;HPM_P1;HPM_P2
2022/09/07 00:01:07;;;;;;;7.05;2.80;;;21.30;66.10;;;23.76;46.24;97420.22;5006730;28;20061;-44
2022/09/07 00:03:35;;;;;;;3.65;2.30;;;21.30;66.10;;;23.76;45.74;97411.25;5005588;28;20247;-43
2022/09/07 00:06:12;;;;;;;4.47;1.88;;;21.30;65.80;;;23.72;46.36;97413.66;5006253;28;20050;-43
2022/09/07 00:08:42;;;;;;;5.03;2.28;;;21.30;66.00;;;23.68;46.30;97412.50;5007458;28;20050;-45
2022/09/07 00:11:15;;;;;;;2.80;1.85;;;21.20;66.50;;;23.73;46.15;97411.75;5010086;28;20389;-42
2022/09/07 00:13:46;;;;;;;3.28;1.90;;;21.20;66.30;;;23.68;46.21;97406.25;5010282;28;20436;-42
2022/09/07 00:16:19;;;;;;;7.10;2.40;;;21.20;66.70;;;23.65;46.07;97404.88;5011003;28;20069;-44
2022/09/07 00:18:47;;;;;;;5.07;2.05;;;21.10;66.60;;;23.56;46.43;97399.03;5008944;28;20041;-43
2022/09/07 00:21:16;;;;;;;3.35;1.92;;;21.10;66.70;;;23.57;46.28;97392.56;5010100;28;20045;-43
2022/09/07 00:23:46;;;;;;;2.47;1.80;;;21.10;66.60;;;23.52;46.41;97388.94;5009620;28;20053;-43
2022/09/07 00:26:18;;;;;;;2.55;1.75;;;21.10;66.80;;;23.51;46.28;97379.13;5011062;28;20069;-44
2022/09/07 00:28:47;;;;;;;2.35;1.77;;;21.10;66.90;;;23.53;46.25;97388.66;5009894;28;20852;-46
2022/09/07 00:31:23;;;;;;;3.03;1.85;;;21.10;67.00;;;23.51;46.63;97379.13;5007678;28;20061;-43
2022/09/07 00:33:52;;;;;;;4.68;2.47;;;21.10;66.50;;;23.52;46.40;97389.75;5007427;28;20406;-44
2022/09/07 00:36:21;;;;;;;3.83;2.10;;;21.10;66.50;;;23.54;46.51;97386.78;5011462;28;20065;-45
2022/09/07 00:38:49;;;;;;;6.03;2.30;;;21.10;66.50;;;23.57;46.38;97378.13;5009023;28;20465;-42
2022/09/07 00:41:20;;;;;;;2.53;1.80;;;21.20;66.60;;;23.61;46.42;97370.28;5008469;28;20046;-45
2022/09/07 00:43:57;;;;;;;3.33;1.90;;;21.20;66.50;;;23.59;46.85;97355.09;5009202;28;20045;-42
2022/09/07 00:46:30;;;;;;;2.95;1.92;;;21.20;66.80;;;23.67;46.52;97355.69;5009978;28;20045;-43
2022/09/07 00:49:11;;;;;;;3.28;2.13;;;21.20;66.60;;;23.72;46.65;97353.88;5009549;28;20256;-43
2022/09/07 00:51:56;;;;;;;2.90;1.98;;;21.30;67.00;;;23.75;46.98;97347.94;5009966;28;20626;-43
2022/09/07 00:54:48;;;;;;;4.05;2.33;;;21.30;67.40;;;23.81;46.59;97357.00;5009867;28;20383;-43
2022/09/07 00:57:16;;;;;;;3.60;2.00;;;21.40;67.30;;;23.80;46.89;97344.47;5008657;28;20061;-43
2022/09/07 00:59:48;;;;;;;2.75;2.20;;;21.40;67.40;;;23.82;47.06;97341.50;5008391;28;20057;-42
2022/09/07 01:02:16;;;;;;;3.05;2.00;;;21.40;67.60;;;23.80;47.18;97346.38;5008981;28;20041;-43
2022/09/07 01:04:50;;;;;;;5.20;2.08;;;21.40;68.00;;;23.81;47.51;97337.97;5009620;28;20042;-43
2022/09/07 01:07:18;;;;;;;2.78;2.15;;;21.40;68.50;;;23.86;47.53;97332.59;5008739;28;20075;-43
2022/09/07 01:09:47;;;;;;;6.18;2.15;;;21.40;68.80;;;23.90;47.44;97328.28;5008744;28;20054;-44
2022/09/07 01:12:14;;;;;;;3.90;2.17;;;21.40;69.00;;;23.94;47.49;97326.72;5008671;28;20054;-44
2022/09/07 01:14:50;;;;;;;4.00;2.70;;;21.40;69.20;;;23.95;47.83;97316.66;5008186;28;20263;-43
2022/09/07 01:18:21;;;;;;;4.90;2.55;;;21.40;69.90;;;24.04;47.62;97327.88;4992614;28;20053;-44
2022/09/07 01:21:26;;;;;;;3.80;2.42;;;21.50;70.30;;;24.12;47.57;97335.59;5008234;28;20069;-43
2022/09/07 01:24:21;;;;;;;;;;;21.50;70.10;;;24.26;47.09;97327.84;5008011;28;20049;-42
2022/09/07 01:27:06;;;;;;;3.72;3.08;;;21.50;71.50;;;24.19;47.70;97328.03;5007464;28;19932;-43
2022/09/07 01:30:08;;;;;;;4.50;2.30;;;21.50;70.90;;;24.09;48.20;97333.38;5008276;28;20060;-43
2022/09/07 01:33:39;;;;;;;4.90;2.75;;;21.50;71.80;;;24.04;48.86;97341.47;5009560;28;20058;-45
2022/09/07 01:36:33;;;;;;;4.65;2.47;;;21.60;72.40;;;24.11;48.50;97347.53;5000165;28;20119;-43
2022/09/07 01:39:04;;;;;;;4.13;2.60;;;21.60;71.50;;;24.08;48.80;97345.31;5008317;28;20060;-43
2022/09/07 01:41:48;;;;;;;5.60;3.00;;;21.60;71.70;;;24.09;48.85;97347.78;5007780;28;20050;-43
2022/09/07 01:44:21;;;;;;;8.02;2.70;;;21.60;72.30;;;24.10;48.94;97364.97;5008446;28;20064;-44
2022/09/07 01:47:23;;;;;;;4.65;2.90;;;21.60;72.20;;;24.11;48.94;97353.81;5006465;28;20054;-43
2022/09/07 01:50:19;;;;;;;4.95;3.00;;;21.60;72.50;;;24.10;48.95;97354.06;5007647;28;20048;-44
2022/09/07 01:52:57;;;;;;;4.70;3.10;;;21.60;72.30;;;24.12;49.00;97362.81;5004559;28;20272;-43
2022/09/07 01:55:52;;;;;;;4.43;2.70;;;21.60;72.70;;;24.12;48.90;97366.34;5010197;28;20060;-44
2022/09/07 01:58:47;;;;;;;3.90;2.40;;;21.60;72.60;;;24.16;48.97;97362.03;5010367;28;20190;-43
2022/09/07 02:01:37;;;;;;;4.28;3.00;;;21.70;72.80;;;24.16;48.98;97372.09;5007820;28;20087;-42
2022/09/07 02:04:16;;;;;;;6.57;2.97;;;21.70;72.80;;;24.16;49.09;97372.09;5006644;28;20058;-42
2022/09/07 02:07:19;;;;;;;6.68;3.03;;;21.60;72.70;;;24.17;49.15;97382.72;5008330;28;20352;-43
2022/09/07 02:10:02;;;;;;;3.72;3.08;;;21.60;72.90;;;24.26;49.08;97384.97;5002497;28;20108;-44
2022/09/07 02:12:41;;;;;;;5.88;3.00;;;21.60;73.30;;;24.16;49.18;97377.53;5006548;28;20068;-46
2022/09/07 02:15:23;;;;;;;5.10;2.40;;;21.50;73.70;;;24.18;48.81;97386.25;5008986;28;20050;-44
2022/09/07 02:18:00;;;;;;;7.25;3.10;;;21.60;73.50;;;24.19;49.03;97390.59;5005997;28;20053;-44
2022/09/07 02:20:35;;;;;;;4.32;2.88;;;21.50;73.80;;;24.19;49.27;97412.34;5006883;28;20057;-42
2022/09/07 02:23:23;;;;;;;3.20;2.38;;;21.50;73.80;;;23.80;50.15;97433.34;5006410;28;20487;-43
2022/09/07 02:26:01;;;;;;;4.85;3.10;;;21.30;75.40;;;23.73;50.22;97444.34;5008213;28;20370;-43
2022/09/07 02:28:34;;;;;;;4.15;2.80;;;21.20;76.10;;;23.64;50.51;97462.19;5008060;28;20053;-44
2022/09/07 02:31:03;;;;;;;6.03;2.90;;;21.10;76.70;;;23.72;50.09;97459.03;5006786;28;20071;-44
2022/09/07 02:33:31;;;;;;;6.28;3.03;;;21.00;76.50;;;23.63;50.05;97471.41;5007945;28;20362;-46
2022/09/07 02:36:00;;;;;;;6.97;2.33;;;20.80;77.10;;;23.26;50.79;97469.22;5006287;28;20053;-45
2022/09/07 02:38:29;;;;;;;4.47;3.42;;;20.60;78.50;;;23.16;50.95;97461.72;5005730;28;20058;-42
2022/09/07 02:41:00;;;;;;;4.10;3.20;;;20.50;78.50;;;23.07;50.95;97469.47;5006577;28;20056;-43
2022/09/07 02:43:31;;;;;;;5.60;2.83;;;20.40;78.60;;;22.88;51.92;97476.97;5008327;28;20153;-44
2022/09/07 02:46:35;;;;;;;7.70;3.10;;;20.30;79.40;;;22.69;52.07;97462.78;5006821;28;20060;-43
2022/09/07 02:49:56;;;;;;;3.95;3.13;;;20.20;80.80;;;22.60;52.32;97473.22;5006550;28;20229;-43
2022/09/07 02:52:43;;;;;;;4.40;3.05;;;20.00;82.90;;;22.58;52.23;97453.63;5007430;28;20060;-43
2022/09/07 02:55:17;;;;;;;4.63;2.80;;;19.80;84.80;;;22.54;52.81;97441.63;5007733;28;20064;-46
2022/09/07 02:58:06;;;;;;;5.60;3.38;;;19.80;85.30;;;22.59;52.49;97444.44;5006794;28;20233;-43
2022/09/07 03:01:14;;;;;;;5.18;4.18;;;19.80;86.00;;;22.75;51.88;97447.44;5007307;28;20057;-43
2022/09/07 03:04:01;;;;;;;3.60;2.90;;;19.90;85.90;;;22.79;52.17;97440.44;5007123;28;20053;-42
2022/09/07 03:07:01;;;;;;;4.63;2.85;;;19.90;86.30;;;22.77;52.11;97435.25;5007797;28;20054;-43
2022/09/07 03:09:37;;;;;;;5.38;3.17;;;19.90;86.70;;;22.91;51.74;97434.94;5006350;28;20066;-43
2022/09/07 03:12:06;;;;;;;4.53;2.97;;;20.00;86.20;;;22.87;51.72;97429.16;5005546;28;20046;-44
2022/09/07 03:14:40;;;;;;;5.80;4.20;;;20.00;85.80;;;22.83;52.14;97438.88;5006792;28;20060;-43
2022/09/07 03:17:09;;;;;;;7.78;3.55;;;19.90;87.00;;;22.79;52.29;97426.88;5007782;28;20056;-43
2022/09/07 03:19:36;;;;;;;6.38;3.55;;;19.90;87.00;;;22.83;52.03;97425.31;5007172;28;20050;-44
2022/09/07 03:22:05;;;;;;;4.38;3.25;;;19.90;86.70;;;22.83;52.21;97438.88;5006811;28;20049;-43
2022/09/07 03:24:33;;;;;;;3.78;3.10;;;20.00;86.60;;;22.88;52.13;97435.44;5005868;28;20416;-43
2022/09/07 03:27:01;;;;;;;6.47;3.00;;;20.00;86.40;;;22.89;51.83;97434.38;5006333;28;20036;-43
2022/09/07 03:29:29;;;;;;;5.63;3.47;;;20.00;86.40;;;22.86;52.18;97424.84;5006439;28;20052;-42
2022/09/07 03:31:57;;;;;;;3.47;2.90;;;20.00;86.60;;;22.89;52.06;97428.94;5004949;28;20467;-43
2022/09/07 03:34:25;;;;;;;4.65;3.50;;;20.00;86.80;;;22.88;52.17;97432.72;5007118;28;20050;-43
2022/09/07 03:36:53;;;;;;;6.38;4.13;;;20.00;86.80;;;22.92;52.18;97434.69;5005481;28;20050;-43
2022/09/07 03:39:22;;;;;;;4.30;2.85;;;20.00;86.80;;;22.95;51.81;97431.50;5005934;28;20054;-45
2022/09/07 03:41:50;;;;;;;8.10;3.00;;;20.00;86.90;;;22.91;52.14;97435.75;5006178;28;20082;-44
2022/09/07 03:44:18;;;;;;;6.53;3.67;;;20.00;87.30;;;22.92;52.37;97444.75;5010348;28;20084;-44
2022/09/07 03:46:46;;;;;;;6.78;3.17;;;20.00;87.70;;;22.87;52.23;97445.47;5010463;28;20054;-42
2022/09/07 03:49:14;;;;;;;6.82;3.15;;;19.90;87.90;;;22.84;52.56;97440.53;5012277;28;20054;-42
2022/09/07 03:51:42;;;;;;;4.45;2.95;;;19.90;88.40;;;22.83;52.20;97440.78;5010691;28;20052;-43
2022/09/07 03:54:10;;;;;;;4.70;3.08;;;19.80;88.70;;;22.80;52.66;97439.38;5012070;28;20053;-43
2022/09/07 03:56:38;;;;;;;6.68;4.18;;;19.80;89.00;;;22.77;52.46;97439.84;5009659;28;20045;-43
2022/09/07 03:59:06;;;;;;;6.95;3.03;;;19.80;89.10;;;22.77;52.31;97432.53;5010195;28;20256;-43
2022/09/07 04:01:33;;;;;;;4.10;3.17;;;19.80;89.00;;;22.76;52.50;97435.50;5009404;28;20050;-44
2022/09/07 04:04:01;;;;;;;7.00;3.15;;;19.80;89.10;;;22.73;52.31;97436.81;5010926;28;20106;-42
2022/09/07 04:06:30;;;;;;;5.97;3.45;;;19.80;88.90;;;22.75;52.53;97439.28;5009659;28;20344;-43
2022/09/07 04:09:13;;;;;;;5.57;3.28;;;19.90;88.80;;;22.74;52.06;97437.63;5009932;28;20046;-43
2022/09/07 04:11:41;;;;;;;6.20;4.05;;;19.80;89.00;;;22.75;52.50;97444.72;5010425;28;20340;-43
2022/09/07 04:14:10;;;;;;;7.53;4.32;;;19.80;88.70;;;22.70;52.49;97431.03;5010353;28;20061;-45
2022/09/07 04:16:44;;;;;;;8.70;4.85;;;19.80;88.50;;;22.64;52.38;97435.56;5008747;28;20057;-44
2022/09/07 04:19:12;;;;;;;6.65;3.22;;;19.80;88.20;;;22.57;52.75;97440.31;5009690;28;20049;-43
2022/09/07 04:21:43;;;;;;;4.90;3.15;;;19.70;88.60;;;22.53;52.66;97444.59;5009134;28;20054;-42
2022/09/07 04:24:11;;;;;;;4.57;3.60;;;19.60;89.10;;;22.50;53.03;97445.06;5010610;28;20046;-42
2022/09/07 04:26:39;;;;;;;5.40;3.92;;;19.60;89.80;;;22.46;53.05;97449.34;5010331;28;20356;-42
2022/09/07 04:29:07;;;;;;;7.18;3.65;;;19.50;90.50;;;22.42;52.87;97449.00;5011413;28;20065;-44
2022/09/07 04:31:36;;;;;;;6.20;4.30;;;19.50;91.10;;;22.44;53.13;97443.34;5010404;28;20580;-43
2022/09/07 04:34:05;;;;;;;3.90;2.90;;;19.50;91.10;;;22.41;52.80;97441.91;5010400;28;20049;-42
2022/09/07 04:36:33;;;;;;;7.00;3.35;;;19.60;90.80;;;22.42;52.87;97444.38;5009950;28;20057;-43
2022/09/07 04:39:04;;;;;;;5.45;3.40;;;19.60;90.30;;;22.41;52.99;97442.75;5009377;28;20256;-43
2022/09/07 04:41:33;;;;;;;4.68;3.65;;;19.60;89.90;;;22.36;53.17;97439.13;5009746;28;20050;-43
2022/09/07 04:44:03;;;;;;;4.97;3.30;;;19.70;89.20;;;22.32;53.37;97440.66;5009969;28;20060;-43
2022/09/07 04:46:34;;;;;;;7.07;3.40;;;19.70;88.90;;;22.33;53.32;97437.72;5008705;28;20080;-43
2022/09/07 04:49:09;;;;;;;5.97;3.78;;;19.60;89.00;;;22.33;53.17;97437.72;5008360;28;20146;-42
2022/09/07 04:51:38;;;;;;;9.48;3.42;;;19.60;89.40;;;22.31;52.87;97426.25;5009154;28;20050;-42
2022/09/07 04:54:06;;;;;;;7.78;3.63;;;19.70;89.10;;;22.29;53.02;97424.88;5009107;28;20191;-43
2022/09/07 04:56:34;;;;;;;5.35;3.50;;;19.60;88.80;;;22.27;53.17;97433.25;5008249;28;20379;-42
2022/09/07 04:59:02;;;;;;;5.88;3.90;;;19.70;89.00;;;22.27;53.19;97427.81;5009372;28;20062;-42
2022/09/07 05:01:30;;;;;;;7.35;4.35;;;19.70;89.00;;;22.27;53.06;97433.25;5009217;28;20046;-43
2022/09/07 05:04:00;;;;;;;6.07;3.05;;;19.60;89.00;;;22.26;53.60;97438.94;5009608;28;20050;-43
2022/09/07 05:06:28;;;;;;;8.02;4.38;;;19.60;89.10;;;22.27;53.64;97437.84;5009184;28;20060;-44
2022/09/07 05:08:58;;;;;;;5.68;4.00;;;19.60;88.80;;;22.25;53.66;97437.28;5008403;28;20067;-43
2022/09/07 05:11:27;;;;;;;5.75;3.83;;;19.70;88.80;;;22.23;53.39;97443.72;5009054;28;20069;-43
2022/09/07 05:13:58;;;;;;;9.57;4.25;;;19.70;88.70;;;22.27;53.52;97445.97;5008217;28;20050;-43
2022/09/07 05:16:28;;;;;;;4.88;3.30;;;19.70;88.90;;;22.28;53.33;97440.31;5009274;28;20064;-44
2022/09/07 05:19:00;;;;;;;4.15;3.17;;;19.70;88.70;;;22.28;53.50;97443.03;5009182;28;20045;-44
2022/09/07 05:21:31;;;;;;;5.63;3.50;;;19.70;88.60;;;22.29;53.27;97446.56;5008422;28;20060;-42
2022/09/07 05:24:01;;;;;;;4.60;3.17;;;19.70;88.60;;;22.30;53.24;97443.63;5009051;28;20049;-42
2022/09/07 05:26:33;;;;;;;4.82;3.45;;;19.70;88.50;;;22.30;53.23;97445.50;5007337;28;20060;-44
2022/09/07 05:29:04;;;;;;;4.53;3.80;;;19.80;88.30;;;22.31;53.66;97449.84;5007238;28;20072;-42
2022/09/07 05:31:53;;;;;;;8.15;3.20;;;19.80;88.40;;;22.35;53.52;97445.59;5008964;28;20068;-43
2022/09/07 05:34:22;;;;;;;9.13;4.50;;;19.80;88.10;;;22.36;53.40;97449.97;5008495;28;20056;-42
2022/09/07 05:36:59;;;;;;;5.15;3.53;;;19.80;88.10;;;22.39;53.36;97452.19;5008138;28;20060;-43
2022/09/07 05:39:27;;;;;;;7.20;3.88;;;19.80;88.50;;;22.42;53.29;97465.25;5007434;28;20068;-42
2022/09/07 05:41:55;;;;;;;8.48;4.00;;;19.80;88.30;;;22.44;53.23;97465.03;5007962;28;20328;-42
2022/09/07 05:44:24;;;;;;;4.70;3.22;;;19.80;88.20;;;22.45;53.54;97477.50;5009453;28;20362;-42
2022/09/07 05:47:07;;;;;;;;;;;19.80;88.70;;;22.65;52.85;97477.91;5009158;28;20048;-43
2022/09/07 05:49:35;;;;;;;5.32;3.25;;;19.80;89.40;;;22.62;52.80;97478.38;5007948;28;19931;-43
2022/09/07 05:52:03;;;;;;;5.65;3.72;;;19.80;89.80;;;22.59;53.21;97485.13;5007528;28;20042;-43
2022/09/07 05:54:30;;;;;;;7.07;3.72;;;19.80;89.50;;;22.59;53.31;97482.41;5008575;28;20072;-42
2022/09/07 05:56:58;;;;;;;6.55;3.03;;;19.90;89.60;;;22.60;53.58;97472.38;5008757;28;20060;-43
2022/09/07 05:59:26;;;;;;;5.63;3.13;;;19.90;89.80;;;22.65;53.21;97466.25;5008165;28;20348;-43
2022/09/07 06:01:54;;;;;;;9.93;3.40;;;19.90;89.80;;;22.68;53.60;97466.59;5007692;28;20057;-42
2022/09/07 06:04:22;;;;;;;6.03;3.72;;;19.90;90.00;;;22.68;53.50;97466.59;5009537;28;20372;-43
2022/09/07 06:06:49;;;;;;;5.57;3.70;;;19.90;90.50;;;22.70;53.75;97466.31;5007353;28;20083;-43
2022/09/07 06:09:38;;;;;;;5.15;3.70;;;19.90;90.80;;;22.77;53.71;97467.00;5008479;28;20068;-43
2022/09/07 06:12:26;;;;;;;6.20;3.50;;;19.90;90.90;;;22.81;53.74;97462.72;5008265;28;20057;-42
2022/09/07 06:14:53;;;;;;;6.20;3.47;;;20.00;91.00;;;22.81;53.71;97468.97;5007594;28;20055;-43
2022/09/07 06:17:21;;;;;;;9.82;3.88;;;20.10;90.80;;;22.84;53.69;97472.25;5008255;28;20056;-42
2022/09/07 06:19:49;;;;;;;6.68;4.00;;;20.10;90.30;;;22.88;53.38;97476.97;5007132;28;20084;-42
2022/09/07 06:22:17;;;;;;;6.65;4.03;;;20.20;89.80;;;22.91;53.42;97479.19;5007727;28;20045;-42
2022/09/07 06:24:45;;;;;;;11.10;3.80;;;20.30;89.50;;;22.98;53.25;97481.75;5007656;28;20071;-44
2022/09/07 06:27:13;;;;;;;7.32;4.03;;;20.40;89.00;;;23.06;53.27;97484.09;5007762;28;20049;-42
2022/09/07 06:29:40;;;;;;;8.68;4.15;;;20.50;88.50;;;23.10;52.93;97482.53;5006992;28;20050;-42
2022/09/07 06:32:08;;;;;;;5.97;3.45;;;20.50;88.00;;;23.15;52.90;97479.91;5003887;28;20263;-42
2022/09/07 06:34:56;;;;;;;5.63;3.20;;;20.50;87.60;;;23.21;52.66;97466.44;5007404;28;20083;-43
2022/09/07 06:37:24;;;;;;;3.25;2.95;;;20.50;87.00;;;23.19;52.73;97470.19;5007846;28;20309;-42
2022/09/07 06:39:51;;;;;;;6.80;4.07;;;20.60;86.60;;;23.24;52.63;97463.19;5007059;28;20060;-44
2022/09/07 06:42:19;;;;;;;5.90;3.05;;;20.60;86.30;;;23.28;52.67;97475.22;5008027;28;20057;-43
2022/09/07 06:44:52;;;;;;;5.03;3.17;;;20.70;85.80;;;23.30;52.46;97471.19;5007040;28;20058;-45
2022/09/07 06:47:20;;;;;;;5.43;3.33;;;20.70;85.30;;;23.34;52.27;97469.63;5007244;28;20053;-42
2022/09/07 06:49:48;;;;;;;6.22;3.05;;;20.70;85.10;;;23.38;52.07;97469.97;5021917;28;20038;-44
2022/09/07 06:52:15;;;;;;;3.75;2.67;;;20.80;84.50;;;23.44;52.20;97471.69;5007648;28;20416;-44
2022/09/07 06:54:44;;;;;;;4.53;2.97;;;20.80;84.50;;;23.45;52.19;97475.22;5007347;28;20046;-43
2022/09/07 06:57:27;;;;;;;6.57;3.58;;;20.80;84.20;;;23.33;52.28;97478.84;5007147;28;20057;-43
2022/09/07 16:22:39;;;;;;;5.53;3.13;;;26.90;47.70;;;28.21;37.40;97250.25;5100629;27;20531;-59
2022/09/07 16:25:27;;;;;;;3.80;2.63;;;26.60;48.60;;;28.46;36.73;97253.88;5082977;28;20629;-61
2022/09/07 16:27:55;;;;;;;3.80;2.40;;;26.20;49.20;;;28.59;36.74;97261.44;5078021;28;20220;-61
2022/09/07 16:30:23;;;;;;;3.95;2.72;;;26.10;49.90;;;28.70;36.23;97272.31;5079164;28;20054;-60
2022/09/07 16:32:52;;;;;;;3.22;2.30;;;26.00;50.10;;;28.74;36.09;97271.44;5093197;28;20368;-61
2022/09/07 16:35:20;;;;;;;3.72;3.30;;;26.00;49.80;;;28.68;36.25;97264.38;5097851;28;20354;-61
2022/09/07 16:37:48;;;;;;;5.10;2.60;;;25.90;50.20;;;28.74;36.65;97257.75;5063700;28;20052;-61
2022/09/07 16:40:40;;;;;;;4.55;2.97;;;25.90;50.30;;;28.75;36.42;97255.81;5063512;28;20055;-61
2022/09/07 16:43:08;;;;;;;4.00;2.60;;;25.90;51.10;;;28.74;37.33;97255.03;5063533;28;20305;-61
2022/09/07 16:45:36;;;;;;;3.03;2.72;;;25.80;52.20;;;28.64;38.57;97260.59;5063040;28;20059;-61
2022/09/07 16:48:24;;;;;;;8.30;2.90;;;25.80;54.10;;;28.54;38.57;97256.03;5047893;28;20265;-61
2022/09/07 16:50:52;;;;;;;4.22;2.88;;;25.60;55.00;;;28.44;39.02;97243.22;5063490;28;20048;-61
2022/09/07 16:53:31;;;;;;;2.72;2.25;;;25.50;54.90;;;28.39;38.43;97243.25;5062404;28;20232;-62
2022/09/07 16:56:05;;;;;;;4.78;3.13;;;25.50;54.70;;;28.33;38.13;97251.78;5062991;28;20380;-61
2022/09/07 16:58:37;;;;;;;5.18;3.17;;;25.40;54.00;;;28.26;38.30;97252.09;5061861;28;20083;-61
2022/09/07 17:01:08;;;;;;;3.72;2.45;;;25.40;54.20;;;28.22;39.31;97256.53;5062687;28;20261;-62
2022/09/07 17:03:37;;;;;;;3.80;3.03;;;25.40;55.70;;;28.13;38.81;97252.75;5061906;28;20066;-61
2022/09/07 17:06:09;;;;;;;3.95;3.28;;;25.30;55.00;;;28.00;39.05;97255.03;5094869;28;20052;-62
2022/09/07 17:08:38;;;;;;;5.03;3.22;;;25.10;55.70;;;27.76;39.63;97248.56;5062721;28;20048;-62
2022/09/07 17:11:09;;;;;;;3.28;2.70;;;24.90;56.30;;;27.71;39.73;97254.09;5070451;28;20048;-61
2022/09/07 17:13:39;;;;;;;5.10;2.83;;;24.90;56.20;;;27.65;39.20;97250.56;5081280;28;20070;-62
2022/09/07 17:16:12;;;;;;;5.07;2.72;;;24.70;55.90;;;27.63;39.65;97250.03;5083628;28;20058;-61
2022/09/07 17:18:42;;;;;;;3.20;2.88;;;24.70;56.20;;;27.52;39.18;97245.69;5083160;28;20078;-61
2022/09/07 17:21:35;;;;;;;4.47;3.28;;;24.60;54.70;;;27.41;38.42;97233.97;5082682;28;20048;-62
2022/09/07 17:24:05;;;;;;;2.75;2.50;;;24.60;54.60;;;27.33;38.80;97242.75;5083794;28;20329;-61
2022/09/07 17:26:33;;;;;;;4.20;2.50;;;24.50;54.10;;;27.23;38.36;97243.59;5080320;28;20284;-61
2022/09/07 17:29:01;;;;;;;4.40;2.70;;;24.40;53.90;;;27.13;38.62;97233.50;5080255;28;20056;-61
2022/09/07 17:31:35;;;;;;;5.30;2.70;;;24.40;53.80;;;27.05;38.60;97231.38;5079305;28;20070;-61
2022/09/07 17:34:23;;;;;;;2.35;2.15;;;24.40;53.50;;;27.02;37.83;97249.09;5065732;28;20056;-62
2022/09/07 17:36:51;;;;;;;3.08;2.38;;;24.30;52.90;;;26.82;37.78;97249.97;5066799;28;20338;-62
2022/09/07 17:39:19;;;;;;;2.15;1.90;;;24.20;52.30;;;26.76;38.00;97259.28;5065748;28;20052;-62
2022/09/07 17:41:50;;;;;;;5.47;2.78;;;24.10;52.70;;;26.68;38.29;97270.75;5065083;28;20048;-62
2022/09/07 17:44:22;;;;;;;5.88;3.70;;;24.00;53.00;;;26.58;38.68;97274.28;5067257;28;20261;-61
2022/09/07 17:46:50;;;;;;;3.15;2.10;;;24.00;53.30;;;26.55;38.37;97285.72;5066639;28;20346;-62
2022/09/07 17:49:18;;;;;;;2.97;2.20;;;23.80;53.10;;;26.47;38.15;97295.28;5066838;28;20048;-62
2022/09/07 17:51:46;;;;;;;2.67;1.67;;;23.80;52.20;;;26.54;38.06;97292.31;5067822;28;20402;-62
2022/09/07 17:54:16;;;;;;;2.72;1.83;;;23.80;52.40;;;26.57;37.79;97299.94;5066934;28;20403;-62
2022/09/07 17:56:45;;;;;;;9.90;2.40;;;23.80;52.10;;;26.53;37.66;97301.56;5066725;28;20056;-62
2022/09/07 17:59:13;;;;;;;2.33;2.05;;;23.80;52.00;;;26.58;38.11;97304.31;5067407;28;20047;-62
2022/09/07 18:02:00;;;;;;;2.22;2.00;;;23.80;53.30;;;26.55;38.80;97323.94;5067096;28;20269;-62
2022/09/07 18:04:28;;;;;;;4.05;2.25;;;23.70;54.80;;;26.58;39.04;97320.69;5067590;28;20056;-62
2022/09/07 18:06:56;;;;;;;3.55;2.45;;;23.70;55.40;;;26.40;39.45;97316.56;5066298;28;20049;-61
2022/09/07 18:09:24;;;;;;;3.88;2.83;;;23.50;56.00;;;26.32;39.95;97312.44;5066086;28;20257;-61
2022/09/07 18:11:51;;;;;;;4.88;2.22;;;23.30;57.50;;;26.20;41.68;97297.44;5067921;28;20266;-61
2022/09/07 18:14:20;;;;;;;3.65;2.05;;;23.10;60.60;;;25.92;43.10;97292.22;5050282;28;20340;-61
2022/09/07 18:16:49;;;;;;;3.60;2.03;;;22.90;63.90;;;25.95;43.59;97266.31;5065838;28;20340;-61
2022/09/07 18:19:18;;;;;;;5.60;2.40;;;22.80;65.90;;;25.79;43.44;97259.16;5065195;28;20234;-61
2022/09/07 18:21:46;;;;;;;3.08;1.75;;;22.60;65.10;;;25.67;42.89;97243.03;5066593;28;20056;-61
2022/09/07 18:24:21;;;;;;;1.88;1.70;;;22.50;63.50;;;25.59;42.98;97229.91;5067296;28;20348;-61
2022/09/07 18:26:52;;;;;;;3.90;2.45;;;22.50;63.80;;;25.53;43.77;97229.09;5064852;28;20048;-61
2022/09/07 18:29:23;;;;;;;3.03;2.10;;;22.40;64.80;;;25.44;42.77;97245.16;5065551;28;20040;-61
2022/09/07 18:32:04;;;;;;;2.40;1.70;;;22.40;62.70;;;25.43;42.66;97262.56;5065517;28;20258;-61
2022/09/07 18:34:37;;;;;;;1.90;1.80;;;22.40;62.70;;;25.17;43.64;97268.97;5065072;28;20067;-61
2022/09/07 18:37:10;;;;;;;2.75;2.40;;;22.20;63.60;;;25.02;44.28;97295.00;5064978;28;20443;-61
2022/09/07 18:39:38;;;;;;;2.85;1.92;;;21.90;67.30;;;24.63;45.13;97299.91;5067027;28;20055;-61
2022/09/07 18:42:08;;;;;;;2.22;1.83;;;21.70;67.20;;;24.43;46.17;97289.63;5066001;28;20048;-61
2022/09/07 18:44:36;;;;;;;3.42;3.13;;;21.50;69.60;;;24.49;46.34;97286.72;5066430;28;20267;-61
2022/09/07 18:47:24;;;;;;;3.70;2.63;;;21.40;70.50;;;24.54;45.81;97289.53;5065090;28;20052;-61
2022/09/07 18:49:56;;;;;;;3.88;1.98;;;21.40;70.60;;;24.58;45.88;97294.44;5049135;28;20048;-61
2022/09/07 18:52:24;;;;;;;3.53;2.33;;;21.50;70.00;;;24.51;45.82;97298.19;5065129;28;20064;-61
2022/09/07 18:55:12;;;;;;;2.83;1.90;;;21.40;69.90;;;24.52;45.72;97291.69;5067685;28;20070;-61
2022/09/07 18:57:40;;;;;;;2.53;2.00;;;21.40;70.90;;;24.37;46.22;97289.63;5067115;28;20067;-61
2022/09/07 19:00:10;;;;;;;3.55;2.78;;;21.30;70.40;;;24.41;46.47;97284.47;5047259;28;20091;-61
2022/09/07 19:02:38;;;;;;;2.63;2.10;;;21.30;70.50;;;24.40;46.20;97290.97;5065224;28;20052;-61
2022/09/07 19:05:06;;;;;;;3.95;1.90;;;21.30;70.20;;;24.40;46.37;97285.53;5067004;28;20063;-61
2022/09/07 19:07:54;;;;;;;4.18;2.15;;;21.30;70.50;;;24.39;46.38;97273.03;5066806;28;20048;-61
2022/09/07 19:10:21;;;;;;;5.65;2.40;;;21.30;70.80;;;24.35;46.64;97269.19;5066310;28;20118;-61
2022/09/07 19:12:49;;;;;;;3.53;2.65;;;21.30;70.80;;;24.29;46.40;97264.78;5066752;28;20049;-61
2022/09/07 19:15:19;;;;;;;2.75;2.13;;;21.30;69.90;;;24.35;46.18;97267.28;5066110;28;20456;-61
2022/09/07 19:17:47;;;;;;;2.38;2.08;;;21.40;70.00;;;24.35;46.26;97256.41;5065814;28;20067;-61
2022/09/07 19:20:15;;;;;;;3.60;2.35;;;21.40;69.60;;;24.34;46.46;97267.53;5066022;28;20150;-61
2022/09/07 19:22:43;;;;;;;2.58;1.60;;;21.30;70.10;;;24.31;46.77;97268.03;5082995;28;20052;-61
2022/09/07 19:25:10;;;;;;;2.85;2.65;;;21.30;70.50;;;24.32;47.27;97269.72;5066210;28;20050;-61
2022/09/07 19:27:38;;;;;;;4.40;2.13;;;21.30;72.00;;;24.27;47.31;97267.78;5065328;28;20047;-61
2022/09/07 19:30:07;;;;;;;3.83;2.30;;;21.30;72.00;;;24.20;46.72;97261.72;5066040;28;20040;-61
2022/09/07 19:32:35;;;;;;;5.10;2.53;;;21.20;71.30;;;24.08;46.81;97261.88;5066278;28;20079;-61
2022/09/07 19:35:03;;;;;;;2.80;1.90;;;21.00;71.70;;;23.98;46.98;97250.88;5064706;28;20058;-61
2022/09/07 19:37:31;;;;;;;2.55;2.35;;;20.90;71.50;;;23.94;46.83;97258.75;5080588;28;20230;-61
2022/09/07 19:40:00;;;;;;;4.18;2.08;;;20.90;71.20;;;23.99;46.54;97257.97;5066278;28;20059;-61
2022/09/07 19:42:28;;;;;;;2.35;1.98;;;21.00;70.60;;;24.01;46.33;97250.38;5065219;28;20044;-61
2022/09/07 19:44:56;;;;;;;5.28;2.13;;;21.00;69.90;;;24.01;46.47;97252.28;5066724;28;20053;-61
2022/09/07 19:47:24;;;;;;;2.47;1.98;;;21.10;69.90;;;24.05;46.85;97247.97;5066263;28;20551;-61
2022/09/07 19:49:52;;;;;;;2.65;2.15;;;21.10;70.50;;;24.11;46.79;97257.81;5064175;28;20049;-61
2022/09/07 19:52:20;;;;;;;3.60;2.33;;;21.20;70.50;;;24.03;46.39;97255.56;5064795;28;20060;-61
2022/09/07 19:54:47;;;;;;;2.80;1.92;;;21.10;70.20;;;23.89;46.21;97250.53;5066483;28;20058;-61
2022/09/07 19:57:15;;;;;;;2.60;2.40;;;20.90;69.40;;;23.86;46.09;97247.50;5065158;28;20056;-61
2022/09/07 19:59:44;;;;;;;3.10;2.00;;;20.90;69.10;;;23.89;46.19;97239.66;5066307;28;20374;-61
2022/09/07 20:02:12;;;;;;;2.00;1.70;;;20.90;69.30;;;23.91;46.03;97234.78;5065354;28;20052;-61
2022/09/07 20:04:40;;;;;;;3.33;2.30;;;21.00;68.80;;;23.90;46.13;97230.44;5066266;28;20049;-61
2022/09/07 20:07:07;;;;;;;2.60;2.20;;;20.90;68.70;;;23.94;46.27;97223.41;5065275;28;20333;-61
2022/09/07 20:09:35;;;;;;;2.95;2.65;;;21.00;69.00;;;23.97;46.43;97219.34;5065926;28;20360;-61